Time;durP1;ratioP1;P1;durP2;ratioP2;P2;SDS_P1;SDS_P2;PMS_P1;PMS_P2;Temp;Humidity;BMP_temperature;BMP_pressure;BME280_temperature;BME280_humidity;BME280_pressure;Samples;Min_cycle;Max_cycle;Signal;HPM_P1;HPM_P2
2023/05/31 00:01:50;;;;;;;;;4.25;4.00;;;;;9.38;88.79;99021.03;4821149;28;103074;-71
2023/05/31 00:04:29;;;;;;;;;7.00;6.00;;;;;9.31;87.68;99012.84;4818222;28;101998;-71
2023/05/31 00:07:10;;;;;;;;;4.50;4.50;;;;;9.32;86.49;99024.47;4814974;29;107919;-71
2023/05/31 00:09:59;;;;;;;;;5.25;4.50;;;;;9.38;84.65;99027.28;4821212;28;102601;-71
2023/05/31 00:12:42;;;;;;;;;2.75;2.75;;;;;9.43;84.29;99024.03;4822107;29;103678;-71
2023/05/31 00:15:31;;;;;;;;;3.75;3.00;;;;;9.44;84.47;99025.72;4822602;28;102720;-71
2023/05/31 00:18:17;;;;;;;;;2.75;2.75;;;;;9.35;84.85;99027.66;4819352;28;109155;-70
2023/05/31 00:20:51;;;;;;;;;5.50;4.50;;;;;9.27;84.56;99034.97;4815238;29;102563;-71
2023/05/31 00:23:18;;;;;;;;;3.00;2.00;;;;;9.15;85.18;99031.03;4820315;28;102233;-71
2023/05/31 00:25:45;;;;;;;;;2.00;1.25;;;;;9.09;86.26;99029.06;4823177;28;105133;-71
2023/05/31 00:28:12;;;;;;;;;1.00;1.00;;;;;8.96;87.89;99024.25;4821731;28;104047;-71
2023/05/31 00:30:40;;;;;;;;;1.25;1.25;;;;;8.88;88.83;99027.00;4821993;28;102021;-71
2023/05/31 00:33:07;;;;;;;;;4.00;2.25;;;;;8.81;88.97;99029.63;4819655;28;103617;-70
2023/05/31 00:35:34;;;;;;;;;3.00;3.00;;;;;8.76;89.93;99026.59;4826702;28;101977;-71
2023/05/31 00:38:05;;;;;;;;;5.75;5.00;;;;;8.71;90.00;99029.00;4821586;28;108611;-71
2023/05/31 00:40:32;;;;;;;;;4.25;4.00;;;;;8.70;90.02;99031.88;4820490;28;102296;-71
2023/05/31 00:42:59;;;;;;;;;8.25;8.25;;;;;8.56;90.44;99020.00;4820297;28;102278;-71
2023/05/31 00:45:28;;;;;;;;;9.00;8.75;;;;;8.62;90.82;99029.22;4822202;28;103480;-71
2023/05/31 00:47:56;;;;;;;;;8.75;8.00;;;;;8.63;90.52;99036.31;4820472;28;104158;-71
2023/05/31 00:50:24;;;;;;;;;10.00;8.50;;;;;8.59;90.61;99035.81;4818554;29;103328;-71
2023/05/31 00:52:54;;;;;;;;;6.75;6.75;;;;;8.56;89.71;99036.16;4817561;28;102479;-71
2023/05/31 00:55:21;;;;;;;;;9.75;9.00;;;;;8.51;89.86;99049.31;4820673;28;102543;-71
2023/05/31 00:57:49;;;;;;;;;7.00;6.00;;;;;8.52;89.58;99035.69;4820239;28;104046;-71
2023/05/31 01:00:17;;;;;;;;;4.25;4.00;;;;;8.53;89.59;99036.53;4818723;28;102580;-71
2023/05/31 01:02:44;;;;;;;;;4.00;3.75;;;;;8.57;88.58;99032.47;4819324;28;103205;-71
2023/05/31 01:05:11;;;;;;;;;5.25;4.50;;;;;8.51;87.62;99025.06;4824869;28;102522;-71
2023/05/31 01:07:46;;;;;;;;;4.50;4.00;;;;;8.38;90.01;99032.88;4818720;28;103941;-71
2023/05/31 01:10:31;;;;;;;;;3.50;3.50;;;;;8.25;90.72;99038.81;4817900;28;102276;-71
2023/05/31 01:13:21;;;;;;;;;6.00;5.00;;;;;7.97;92.85;99019.56;4818776;28;102331;-71
2023/05/31 01:16:38;;;;;;;;;4.25;4.00;;;;;8.01;93.25;99031.69;4818112;28;102187;-71
2023/05/31 01:19:41;;;;;;;;;4.50;4.00;;;;;7.87;94.07;99043.19;4830767;28;107665;-71
2023/05/31 01:22:47;;;;;;;;;10.00;8.00;;;;;7.76;95.39;99048.94;4802664;28;102145;-71
2023/05/31 01:25:23;;;;;;;;;10.00;6.00;;;;;7.63;96.13;99048.63;4820069;28;102600;-71
2023/05/31 01:27:53;;;;;;;;;6.50;6.50;;;;;7.68;95.66;99040.03;4821970;28;102138;-72
2023/05/31 01:30:22;;;;;;;;;7.00;6.25;;;;;7.64;95.33;99039.56;4819956;28;108905;-71
2023/05/31 01:32:51;;;;;;;;;4.00;3.00;;;;;7.66;95.24;99037.50;4818244;28;101946;-72
2023/05/31 01:35:18;;;;;;;;;6.00;5.75;;;;;7.50;95.99;99011.50;4819984;28;103970;-71
2023/05/31 01:37:45;;;;;;;;;5.00;5.00;;;;;7.57;95.79;99027.78;4819013;29;102447;-71
2023/05/31 01:40:13;;;;;;;;;8.50;6.25;;;;;7.54;95.91;99033.50;4813850;28;104212;-71
2023/05/31 01:42:42;;;;;;;;;11.00;8.75;;;;;7.40;97.28;99026.13;4818765;28;102533;-71
2023/05/31 01:45:12;;;;;;;;;10.25;9.25;;;;;7.41;97.39;99035.91;4820407;28;103315;-71
2023/05/31 01:47:41;;;;;;;;;10.75;8.25;;;;;7.39;98.15;99032.50;4822670;28;102098;-71
2023/05/31 01:50:11;;;;;;;;;8.50;6.25;;;;;7.33;98.09;99041.28;4817841;29;104133;-71
2023/05/31 01:52:39;;;;;;;;;9.75;8.00;;;;;7.37;98.80;99021.09;4818622;29;102408;-71
2023/05/31 01:55:06;;;;;;;;;4.75;4.00;;;;;7.39;98.36;99035.22;4820150;28;103522;-71
2023/05/31 01:57:37;;;;;;;;;6.50;4.50;;;;;7.23;97.66;99011.03;4819944;28;102168;-71
2023/05/31 02:00:11;;;;;;;;;9.00;9.00;;;;;7.27;99.03;99025.81;4820004;28;104063;-71
2023/05/31 02:02:42;;;;;;;;;7.50;7.00;;;;;7.18;99.02;99033.06;4805901;28;102132;-72
2023/05/31 02:05:12;;;;;;;;;10.75;9.00;;;;;7.11;100.00;99032.88;4821660;29;103178;-71
2023/05/31 02:07:45;;;;;;;;;8.25;8.00;;;;;7.13;99.53;99036.25;4822908;29;103382;-72
2023/05/31 02:10:13;;;;;;;;;7.50;7.00;;;;;7.21;99.17;99032.72;4822183;28;103989;-71
2023/05/31 02:12:40;;;;;;;;;5.25;4.25;;;;;7.32;98.18;99029.69;4819234;29;102046;-73
2023/05/31 02:15:10;;;;;;;;;2.00;2.00;;;;;7.41;97.57;99039.44;4818989;28;102092;-70
2023/05/31 02:17:42;;;;;;;;;3.00;2.00;;;;;7.47;96.26;99035.22;4819960;29;102447;-71
2023/05/31 02:20:12;;;;;;;;;3.00;3.00;;;;;7.54;95.23;99045.13;4817237;28;105405;-72
2023/05/31 02:22:44;;;;;;;;;4.25;3.75;;;;;7.60;94.81;99038.22;4817577;28;103515;-71
2023/05/31 02:25:12;;;;;;;;;7.50;5.00;;;;;7.65;94.42;99037.72;4820701;29;102293;-71
2023/05/31 02:27:41;;;;;;;;;7.50;6.75;;;;;7.71;94.19;99034.31;4820809;29;102435;-71
2023/05/31 02:30:09;;;;;;;;;4.25;4.25;;;;;7.77;94.14;99037.16;4818496;28;103997;-71
2023/05/31 02:32:37;;;;;;;;;5.50;4.25;;;;;7.80;93.14;99038.66;4818611;29;103511;-71
2023/05/31 02:35:07;;;;;;;;;8.25;8.25;;;;;7.76;93.29;99040.03;4819706;28;102073;-71
2023/05/31 02:37:36;;;;;;;;;8.25;7.75;;;;;7.77;93.07;99030.94;4819508;28;102263;-71
2023/05/31 02:40:09;;;;;;;;;7.50;7.00;;;;;7.82;93.63;99037.50;4821061;29;103748;-71
2023/05/31 02:42:38;;;;;;;;;9.25;8.00;;;;;7.80;92.70;99042.19;4817165;29;102344;-71
2023/05/31 02:45:06;;;;;;;;;8.75;8.25;;;;;7.73;92.48;99035.84;4819854;28;103184;-71
2023/05/31 02:47:33;;;;;;;;;11.75;11.25;;;;;7.60;92.78;99032.84;4819636;28;101908;-71
2023/05/31 02:50:00;;;;;;;;;13.25;11.25;;;;;7.59;93.77;99042.75;4819904;28;104142;-71
2023/05/31 02:52:28;;;;;;;;;14.75;14.00;;;;;7.57;93.50;99034.00;4819734;28;102496;-71
2023/05/31 02:54:55;;;;;;;;;14.00;11.75;;;;;7.59;93.39;99042.75;4822247;29;102486;-72
2023/05/31 02:57:22;;;;;;;;;13.25;12.00;;;;;7.66;93.74;99042.06;4820265;29;101986;-72
2023/05/31 02:59:49;;;;;;;;;8.00;5.00;;;;;7.71;92.87;99047.75;4822516;29;103976;-72
2023/05/31 03:02:16;;;;;;;;;12.25;11.00;;;;;7.70;92.06;99044.22;4819484;29;103669;-72
2023/05/31 03:04:44;;;;;;;;;10.00;10.00;;;;;7.55;93.87;99051.34;4817938;28;103676;-72
2023/05/31 03:07:11;;;;;;;;;11.75;10.00;;;;;7.48;93.41;99050.31;4815339;28;102623;-72
2023/05/31 03:09:38;;;;;;;;;8.00;7.00;;;;;7.49;93.07;99062.78;4819966;29;104086;-72
2023/05/31 03:12:06;;;;;;;;;12.00;9.25;;;;;7.32;93.94;99059.28;4820015;28;107111;-72
2023/05/31 03:14:33;;;;;;;;;5.00;5.00;;;;;7.42;93.23;99059.09;4819670;29;102948;-72
2023/05/31 03:17:00;;;;;;;;;9.00;7.25;;;;;7.44;92.98;99057.91;4818075;29;102225;-72
2023/05/31 03:19:28;;;;;;;;;4.00;4.00;;;;;7.47;93.81;99067.50;4822606;29;104006;-72
2023/05/31 03:21:54;;;;;;;;;7.00;5.50;;;;;7.51;92.69;99058.94;4811817;28;102064;-72
2023/05/31 03:24:21;;;;;;;;;4.25;4.25;;;;;7.59;92.70;99066.13;4823014;29;102212;-71
2023/05/31 03:26:48;;;;;;;;;1.75;1.25;;;;;7.63;93.13;99072.84;4823487;28;102268;-70
2023/05/31 03:29:15;;;;;;;;;2.00;2.00;;;;;7.64;94.18;99066.47;4823989;29;104086;-71
2023/05/31 03:31:42;;;;;;;;;1.50;1.00;;;;;7.63;94.25;99062.09;4835583;28;103301;-71
2023/05/31 03:34:09;;;;;;;;;2.00;2.00;;;;;7.70;93.94;99070.34;4823679;28;102442;-71
2023/05/31 03:36:36;;;;;;;;;3.75;3.00;;;;;7.74;94.56;99072.50;4824427;28;102520;-71
2023/05/31 03:39:03;;;;;;;;;2.00;2.00;;;;;7.82;94.63;99080.56;4817404;28;104192;-71
2023/05/31 03:41:30;;;;;;;;;3.25;3.00;;;;;7.84;94.85;99083.91;4824021;28;102517;-70
2023/05/31 03:43:58;;;;;;;;;0.75;0.75;;;;;7.92;94.98;99075.00;4825058;29;102080;-71
2023/05/31 03:46:25;;;;;;;;;1.00;1.00;;;;;7.99;94.08;99073.28;4820454;28;102193;-71
2023/05/31 03:48:53;;;;;;;;;2.00;2.00;;;;;8.04;93.70;99077.13;4823772;28;104120;-71
2023/05/31 03:51:21;;;;;;;;;1.25;0.50;;;;;8.08;94.17;99081.16;4816408;29;103103;-71
2023/05/31 03:53:48;;;;;;;;;2.00;2.00;;;;;8.08;95.13;99080.31;4819643;28;102159;-71
2023/05/31 03:56:15;;;;;;;;;1.50;1.50;;;;;8.08;96.03;99075.75;4818675;28;102137;-71
2023/05/31 03:58:42;;;;;;;;;5.50;5.00;;;;;8.05;93.58;99075.28;4822044;28;104071;-71
2023/05/31 04:01:10;;;;;;;;;4.00;4.00;;;;;8.22;93.87;99070.66;4821530;28;102768;-71
2023/05/31 04:03:37;;;;;;;;;4.00;3.25;;;;;8.33;93.89;99062.25;4823173;29;102414;-71
2023/05/31 04:06:07;;;;;;;;;3.50;3.00;;;;;8.44;93.69;99065.38;4822171;29;102504;-71
2023/05/31 04:08:35;;;;;;;;;3.50;3.00;;;;;8.48;94.59;99065.84;4823156;28;104157;-71
2023/05/31 04:11:02;;;;;;;;;5.50;5.00;;;;;8.38;93.13;99066.06;4824668;28;102307;-71
2023/05/31 04:13:30;;;;;;;;;8.00;6.25;;;;;8.35;94.05;99065.59;4824531;28;102282;-71
2023/05/31 04:15:57;;;;;;;;;5.75;5.00;;;;;8.36;93.01;99061.88;4824732;28;102168;-71
2023/05/31 04:18:24;;;;;;;;;8.00;6.75;;;;;8.48;91.05;99065.84;4803535;28;104169;-71
2023/05/31 04:20:51;;;;;;;;;6.25;6.00;;;;;8.71;91.89;99064.03;4823278;28;103331;-71
2023/05/31 04:23:18;;;;;;;;;4.00;3.75;;;;;8.89;91.27;99059.22;4823314;28;102280;-71
2023/05/31 04:25:45;;;;;;;;;3.75;3.75;;;;;9.05;91.38;99062.81;4817618;29;102074;-71
2023/05/31 04:28:13;;;;;;;;;7.00;7.00;;;;;9.07;89.21;99061.59;4821163;28;104033;-71
2023/05/31 04:30:40;;;;;;;;;8.00;7.50;;;;;9.15;88.57;99066.09;4821063;28;102366;-71
2023/05/31 04:33:07;;;;;;;;;6.50;6.00;;;;;9.39;88.14;99060.50;4822346;28;102108;-71
2023/05/31 04:35:34;;;;;;;;;9.00;7.25;;;;;9.61;86.78;99047.97;4823670;29;102075;-71
2023/05/31 04:38:02;;;;;;;;;6.50;6.00;;;;;10.21;83.59;99050.56;4819221;28;104361;-71
2023/05/31 04:40:32;;;;;;;;;9.00;7.25;;;;;10.82;79.60;99059.19;4822087;28;102033;-71
2023/05/31 04:43:02;;;;;;;;;6.00;5.00;;;;;11.20;78.99;99066.06;4821025;29;102166;-71
2023/05/31 04:45:32;;;;;;;;;8.50;7.75;;;;;11.68;76.06;99068.94;4823223;29;102107;-71
2023/05/31 04:47:59;;;;;;;;;6.50;6.00;;;;;11.78;73.82;99067.63;4821570;28;108548;-71
2023/05/31 04:50:26;;;;;;;;;10.00;9.00;;;;;11.96;74.98;99072.53;4822206;29;102141;-71
2023/05/31 04:52:57;;;;;;;;;8.25;7.00;;;;;12.40;72.44;99067.56;4822378;29;102307;-71
2023/05/31 04:55:24;;;;;;;;;6.00;6.00;;;;;12.69;70.40;99077.31;4824526;28;101987;-71
2023/05/31 04:57:51;;;;;;;;;5.75;5.50;;;;;12.74;70.03;99084.84;4816281;29;104066;-71
2023/05/31 05:00:19;;;;;;;;;9.25;7.25;;;;;13.46;70.76;99084.19;4820341;28;102184;-71
2023/05/31 05:02:46;;;;;;;;;10.00;8.50;;;;;13.83;69.55;99091.72;4820693;28;108784;-71
2023/05/31 05:05:15;;;;;;;;;11.50;9.00;;;;;14.41;66.50;99078.28;4824697;28;102261;-71
2023/05/31 05:07:42;;;;;;;;;6.75;6.50;;;;;14.44;65.66;99081.41;4824208;28;104044;-71
2023/05/31 05:10:09;;;;;;;;;7.75;7.25;;;;;14.64;65.04;99084.03;4823213;29;102215;-71
2023/05/31 05:12:36;;;;;;;;;7.00;7.00;;;;;14.46;64.86;99086.63;4821816;28;102074;-70
2023/05/31 05:15:04;;;;;;;;;6.50;6.00;;;;;14.51;66.44;99084.09;4822393;28;102364;-71
2023/05/31 05:17:31;;;;;;;;;7.00;6.00;;;;;14.53;65.92;99065.69;4820057;29;104148;-71
2023/05/31 05:19:58;;;;;;;;;6.25;5.00;;;;;14.56;62.70;99076.13;4824371;28;101887;-71
2023/05/31 05:22:25;;;;;;;;;6.50;6.25;;;;;14.73;63.70;99078.16;4822709;28;103068;-71
2023/05/31 05:24:52;;;;;;;;;7.75;6.25;;;;;14.97;63.48;99073.00;4821110;29;102025;-71
2023/05/31 05:27:21;;;;;;;;;7.00;6.00;;;;;14.87;64.23;99081.66;4824795;29;104008;-71
2023/05/31 05:29:48;;;;;;;;;6.00;5.00;;;;;15.30;62.03;99079.09;4825533;29;102173;-72
2023/05/31 05:32:15;;;;;;;;;8.00;7.00;;;;;15.79;62.39;99085.69;4819554;29;102606;-72
2023/05/31 05:34:42;;;;;;;;;6.00;6.00;;;;;15.77;62.13;99069.53;4823180;28;102594;-72
2023/05/31 05:37:09;;;;;;;;;8.00;7.00;;;;;16.24;61.54;99076.25;4822028;28;104042;-72
2023/05/31 05:39:36;;;;;;;;;7.75;6.25;;;;;16.41;56.78;99071.84;4823861;28;102175;-71
2023/05/31 05:42:04;;;;;;;;;11.75;8.00;;;;;16.19;58.03;99072.50;4820180;28;101939;-70
2023/05/31 05:44:31;;;;;;;;;5.25;5.00;;;;;16.53;61.94;99078.22;4827019;28;102111;-71
2023/05/31 05:46:58;;;;;;;;;9.00;8.00;;;;;16.87;60.94;99082.25;4818920;28;108887;-71
2023/05/31 05:49:25;;;;;;;;;5.75;5.75;;;;;16.77;57.01;99073.75;4822547;28;102966;-71
2023/05/31 05:51:52;;;;;;;;;4.75;4.25;;;;;17.18;57.51;99077.63;4824185;28;102136;-71
2023/05/31 05:54:19;;;;;;;;;9.00;8.00;;;;;17.08;54.88;99082.81;4823966;28;102078;-71
2023/05/31 05:56:46;;;;;;;;;7.67;6.67;;;;;16.85;54.83;99084.38;4822218;28;104137;-71
2023/05/31 05:59:13;;;;;;;;;9.50;9.50;;;;;17.53;55.49;99081.31;4819996;28;102403;-71
2023/05/31 06:01:40;;;;;;;;;5.00;5.00;;;;;18.27;55.23;99075.25;4822639;28;102694;-71
2023/05/31 06:04:07;;;;;;;;;7.00;6.00;;;;;18.00;53.03;99082.25;4823433;29;101982;-71
2023/05/31 06:06:35;;;;;;;;;8.67;7.00;;;;;17.18;52.96;99078.47;4822387;28;103933;-71
2023/05/31 06:09:02;;;;;;;;;8.00;7.00;;;;;18.16;57.06;99073.31;4820812;28;101901;-71
2023/05/31 06:11:30;;;;;;;;;6.33;6.33;;;;;19.08;52.32;99079.72;4826466;28;102258;-71
2023/05/31 06:13:57;;;;;;;;;5.00;3.67;;;;;19.00;52.05;99079.28;4825676;28;102023;-71
2023/05/31 06:16:24;;;;;;;;;7.00;6.00;;;;;18.51;51.44;99078.75;4814268;28;104099;-72
2023/05/31 06:18:51;;;;;;;;;5.67;4.33;;;;;18.79;53.18;99079.94;4820966;28;102160;-71
2023/05/31 06:21:18;;;;;;;;;4.33;4.00;;;;;19.24;52.48;99078.09;4820018;28;102360;-71
2023/05/31 06:23:45;;;;;;;;;2.67;2.67;;;;;19.75;48.71;99082.63;4817912;29;103158;-71
2023/05/31 06:26:12;;;;;;;;;5.00;3.67;;;;;19.93;47.00;99081.56;4821309;29;104012;-71
2023/05/31 06:28:39;;;;;;;;;4.67;4.67;;;;;20.48;50.99;99078.88;4823430;29;102187;-71
2023/05/31 06:31:09;;;;;;;;;4.00;3.00;;;;;20.79;46.33;99069.94;4822668;29;101888;-71
2023/05/31 06:33:36;;;;;;;;;4.00;3.67;;;;;20.67;45.44;99076.66;4819724;29;102122;-72
2023/05/31 06:36:03;;;;;;;;;4.33;4.00;;;;;21.08;48.95;99078.78;4818053;28;104249;-71
2023/05/31 06:38:30;;;;;;;;;2.00;2.00;;;;;20.94;46.97;99072.84;4819313;28;101984;-72
2023/05/31 06:40:57;;;;;;;;;2.67;2.67;;;;;20.92;46.09;99076.97;4820743;29;101800;-73
2023/05/31 06:43:24;;;;;;;;;2.00;2.00;;;;;20.58;45.75;99068.00;4824417;29;102349;-72
2023/05/31 06:45:51;;;;;;;;;4.00;3.00;;;;;20.96;46.84;99075.38;4819001;28;104091;-69
2023/05/31 06:48:18;;;;;;;;;3.33;3.33;;;;;21.04;45.10;99076.81;4822095;28;102168;-72
2023/05/31 06:50:45;;;;;;;;;3.00;3.00;;;;;21.35;48.17;99081.59;4818636;28;102022;-72
2023/05/31 06:53:13;;;;;;;;;3.00;3.00;;;;;21.46;43.35;99086.13;4824050;28;102188;-70
2023/05/31 06:55:40;;;;;;;;;6.00;5.00;;;;;21.14;43.21;99076.97;4821671;29;108953;-71
2023/05/31 06:58:07;;;;;;;;;3.67;3.67;;;;;21.22;46.00;99074.59;4819513;28;102039;-71
2023/05/31 07:00:34;;;;;;;;;5.00;5.00;;;;;21.45;46.17;99072.63;4820304;29;102521;-71
2023/05/31 07:03:01;;;;;;;;;4.33;4.33;;;;;21.25;45.23;99074.06;4823183;29;101940;-71
2023/05/31 07:05:30;;;;;;;;;2.33;2.00;;;;;21.87;45.46;99073.59;4821636;28;104002;-71
2023/05/31 07:07:57;;;;;;;;;5.33;4.00;;;;;21.60;45.62;99073.63;4821484;29;102398;-71
2023/05/31 07:10:24;;;;;;;;;5.00;3.00;;;;;22.18;45.29;99072.75;4820927;29;102368;-71
2023/05/31 07:12:51;;;;;;;;;3.67;3.67;;;;;21.61;40.71;99072.53;4820568;28;102968;-71
2023/05/31 07:15:18;;;;;;;;;4.33;4.33;;;;;21.71;41.84;99080.88;4825906;28;104003;-71
2023/05/31 07:17:45;;;;;;;;;4.00;3.00;;;;;21.92;42.54;99068.13;4808746;28;104636;-71
2023/05/31 07:20:13;;;;;;;;;3.00;3.00;;;;;21.26;41.75;99075.72;4809130;28;102067;-71
2023/05/31 07:22:40;;;;;;;;;5.00;4.33;;;;;20.93;42.76;99067.63;4812453;29;102009;-71
2023/05/31 07:25:08;;;;;;;;;3.00;2.00;;;;;21.57;45.09;99067.81;4822574;28;104088;-71
2023/05/31 07:27:35;;;;;;;;;3.00;3.00;;;;;21.50;41.62;99073.50;4815328;29;102664;-71
2023/05/31 07:30:02;;;;;;;;;2.33;2.00;;;;;21.44;40.71;99051.69;4818484;28;102435;-71
2023/05/31 07:32:29;;;;;;;;;5.00;4.00;;;;;20.78;40.20;99075.69;4820278;28;102080;-70
2023/05/31 07:34:56;;;;;;;;;5.33;4.67;;;;;19.86;42.01;99067.97;4821149;28;104059;-70
2023/05/31 07:37:30;;;;;;;;;3.33;3.33;;;;;20.20;43.28;99060.56;4822842;28;102188;-70
2023/05/31 07:39:57;;;;;;;;;5.00;4.00;;;;;20.09;42.57;99060.66;4819228;29;102012;-71
2023/05/31 07:42:24;;;;;;;;;4.00;3.67;;;;;20.28;44.66;99051.06;4818948;28;103181;-71
2023/05/31 07:44:51;;;;;;;;;6.67;4.00;;;;;20.65;45.01;99054.09;4819617;28;104065;-70
2023/05/31 07:47:20;;;;;;;;;6.00;4.67;;;;;20.30;46.00;99052.53;4816006;28;102243;-71
2023/05/31 07:49:47;;;;;;;;;2.33;2.00;;;;;21.04;42.16;99054.81;4821190;28;101884;-71
2023/05/31 07:52:16;;;;;;;;;3.00;3.00;;;;;21.22;43.52;99052.59;4822668;29;101954;-70
2023/05/31 07:54:43;;;;;;;;;5.00;3.00;;;;;20.84;40.55;99044.44;4820774;29;103995;-70
2023/05/31 07:57:10;;;;;;;;;6.00;4.00;;;;;20.30;43.01;99044.28;4818639;28;102311;-71
2023/05/31 07:59:37;;;;;;;;;4.33;4.00;;;;;20.31;41.61;99043.16;4818859;28;102808;-71
2023/05/31 08:02:04;;;;;;;;;3.00;3.00;;;;;20.64;41.31;99017.53;4821807;28;102205;-71
2023/05/31 08:04:31;;;;;;;;;3.00;3.00;;;;;20.92;41.47;99036.56;4823125;29;108706;-70
2023/05/31 08:06:58;;;;;;;;;3.00;3.00;;;;;21.42;40.81;99040.13;4819429;29;102015;-70
2023/05/31 08:09:26;;;;;;;;;3.67;3.67;;;;;21.19;41.24;99044.03;4818589;29;102121;-70
2023/05/31 08:11:53;;;;;;;;;2.67;2.67;;;;;21.25;39.63;99034.75;4823208;28;101942;-72
2023/05/31 08:14:20;;;;;;;;;2.00;2.00;;;;;21.68;40.86;99039.28;4819969;29;104179;-72
2023/05/31 08:16:49;;;;;;;;;2.67;2.00;;;;;21.53;40.38;99030.88;4822722;29;101866;-72
2023/05/31 08:19:16;;;;;;;;;4.33;3.00;;;;;22.04;40.35;99033.00;4823705;29;102864;-72
2023/05/31 08:21:45;;;;;;;;;2.00;2.00;;;;;22.01;37.61;99039.03;4824643;28;102402;-71
2023/05/31 08:24:12;;;;;;;;;2.33;2.00;;;;;21.42;38.08;99035.47;4822655;28;104051;-71
2023/05/31 08:26:39;;;;;;;;;3.33;3.00;;;;;21.18;38.21;99042.38;4821992;28;101807;-71
2023/05/31 08:29:07;;;;;;;;;2.00;2.00;;;;;21.06;37.65;99039.75;4823491;28;102075;-71
2023/05/31 08:31:34;;;;;;;;;3.33;3.33;;;;;21.05;36.67;99051.81;4820315;29;102085;-70
2023/05/31 08:34:02;;;;;;;;;4.00;3.00;;;;;20.95;36.31;99040.69;4823955;29;103975;-71
2023/05/31 08:36:29;;;;;;;;;1.67;1.67;;;;;21.63;36.87;99041.97;4822429;29;102040;-71
2023/05/31 08:38:57;;;;;;;;;1.00;1.00;;;;;22.08;38.35;99041.53;4823920;28;102353;-71
2023/05/31 08:41:25;;;;;;;;;5.00;4.00;;;;;21.58;37.72;99033.66;4823966;28;102462;-70
2023/05/31 08:43:53;;;;;;;;;3.00;3.00;;;;;21.20;39.67;99035.53;4824839;28;103984;-70
2023/05/31 08:46:20;;;;;;;;;4.67;4.00;;;;;20.60;38.52;99029.28;4823906;28;102069;-69
2023/05/31 08:48:53;;;;;;;;;3.67;3.00;;;;;21.21;37.59;99030.84;4823842;28;102144;-70
2023/05/31 08:51:24;;;;;;;;;3.33;3.00;;;;;21.43;38.51;99030.81;4826965;28;101956;-70
2023/05/31 08:53:51;;;;;;;;;4.00;4.00;;;;;21.26;38.04;99034.47;4822763;29;108717;-70
2023/05/31 08:56:23;;;;;;;;;3.00;3.00;;;;;21.63;37.69;99036.47;4818582;28;102116;-70
2023/05/31 08:58:51;;;;;;;;;3.67;3.00;;;;;21.90;37.94;99033.66;4824395;29;102301;-71
2023/05/31 09:01:19;;;;;;;;;3.00;3.00;;;;;21.64;37.23;99024.38;4821947;29;102341;-70
2023/05/31 09:03:47;;;;;;;;;3.67;3.67;;;;;21.52;39.09;99029.25;4821893;29;104147;-70
2023/05/31 09:06:14;;;;;;;;;3.00;2.00;;;;;21.96;41.69;99036.25;4821792;29;102016;-70
2023/05/31 09:08:41;;;;;;;;;2.00;2.00;;;;;22.43;37.42;99024.41;4821699;28;102926;-70
2023/05/31 09:11:09;;;;;;;;;3.00;2.33;;;;;22.57;37.05;99025.56;4821835;28;102367;-71
2023/05/31 09:13:36;;;;;;;;;1.00;1.00;;;;;22.85;36.90;99027.09;4819062;28;104061;-71
2023/05/31 09:16:04;;;;;;;;;1.33;1.00;;;;;22.97;36.96;99020.25;4820967;29;102439;-71
2023/05/31 09:18:39;;;;;;;;;2.67;2.00;;;;;22.25;36.46;99023.75;4821836;28;102476;-71
2023/05/31 09:21:14;;;;;;;;;2.33;2.33;;;;;22.32;35.58;99022.69;4820496;28;103128;-71
2023/05/31 09:23:57;;;;;;;;;4.00;4.00;;;;;22.40;38.49;99031.28;4825047;28;104044;-72
2023/05/31 09:26:25;;;;;;;;;1.00;1.00;;;;;22.76;38.39;99024.03;4818687;28;101990;-70
2023/05/31 09:28:53;;;;;;;;;3.00;2.00;;;;;22.95;35.95;99016.94;4824540;28;102068;-71
2023/05/31 09:31:20;;;;;;;;;2.00;1.00;;;;;23.31;35.76;99025.31;4824953;28;102609;-72
2023/05/31 09:33:49;;;;;;;;;2.00;2.00;;;;;23.27;33.53;99018.69;4822444;28;109208;-70
2023/05/31 09:36:25;;;;;;;;;1.00;1.00;;;;;23.45;33.11;99023.72;4823794;29;102116;-70
2023/05/31 09:39:00;;;;;;;;;5.00;4.00;;;;;22.79;36.56;99012.47;4819990;28;101963;-71
2023/05/31 09:41:28;;;;;;;;;3.00;3.00;;;;;23.04;38.12;99022.75;4823054;28;102114;-71
2023/05/31 09:43:55;;;;;;;;;4.00;3.67;;;;;23.16;36.45;99017.81;4824146;29;104032;-71
2023/05/31 09:46:23;;;;;;;;;3.00;3.00;;;;;23.18;35.37;99009.28;4823717;29;102918;-71
2023/05/31 09:49:00;;;;;;;;;2.33;2.00;;;;;23.28;36.42;99018.38;4820110;28;102007;-71
2023/05/31 09:51:28;;;;;;;;;2.67;2.67;;;;;22.89;34.17;99008.91;4817979;29;102436;-71
2023/05/31 09:53:55;;;;;;;;;3.67;3.00;;;;;22.55;34.89;99011.25;4823200;28;104009;-70
2023/05/31 09:56:23;;;;;;;;;3.00;2.67;;;;;22.67;34.93;99006.34;4821040;28;102097;-70
2023/05/31 09:58:51;;;;;;;;;3.33;3.00;;;;;22.44;37.94;98993.00;4822197;28;102428;-71
2023/05/31 10:01:19;;;;;;;;;2.00;2.00;;;;;22.61;37.71;98993.63;4824335;29;102437;-71
2023/05/31 10:03:50;;;;;;;;;2.33;2.33;;;;;23.01;35.85;98995.72;4821485;28;104183;-70
2023/05/31 10:06:18;;;;;;;;;3.00;3.00;;;;;22.96;35.35;98996.56;4821990;28;102001;-71
2023/05/31 10:08:46;;;;;;;;;3.67;2.67;;;;;22.35;36.72;99000.09;4819338;28;102308;-70
2023/05/31 10:11:21;;;;;;;;;0.00;0.00;;;;;22.39;37.16;98984.69;4818475;28;102547;-71
2023/05/31 10:13:52;;;;;;;;;3.00;2.00;;;;;22.09;37.20;98986.19;4819074;28;104130;-71
2023/05/31 10:16:21;;;;;;;;;3.00;3.00;;;;;22.51;38.83;98979.81;4815625;28;101881;-71
2023/05/31 10:18:52;;;;;;;;;0.00;0.00;;;;;22.91;37.27;98974.47;4818115;28;102106;-71
2023/05/31 10:21:25;;;;;;;;;1.67;1.67;;;;;22.86;35.49;98957.91;4821704;28;102488;-71
2023/05/31 10:23:55;;;;;;;;;4.33;3.33;;;;;23.06;36.87;98968.13;4814930;29;103720;-71
2023/05/31 10:26:26;;;;;;;;;2.00;2.00;;;;;23.02;34.74;98967.84;4820444;28;102210;-72
2023/05/31 10:29:03;;;;;;;;;2.00;2.00;;;;;23.10;35.06;98969.25;4819625;29;102120;-70
2023/05/31 10:31:33;;;;;;;;;2.00;2.00;;;;;23.22;35.78;98966.25;4821365;29;102536;-71
2023/05/31 10:34:15;;;;;;;;;5.00;3.00;;;;;22.91;34.90;98966.19;4815285;28;104488;-70
2023/05/31 10:36:43;;;;;;;;;3.00;1.67;;;;;23.25;35.14;98966.50;4813897;28;102050;-71
2023/05/31 10:39:23;;;;;;;;;1.33;1.33;;;;;23.57;36.80;98960.75;4821124;28;102215;-70
2023/05/31 10:41:59;;;;;;;;;0.00;0.00;;;;;23.64;35.31;98955.78;4822192;28;102383;-71
2023/05/31 10:44:33;;;;;;;;;3.33;3.33;;;;;23.35;33.65;98960.19;4821861;29;108587;-71
2023/05/31 10:47:07;;;;;;;;;4.00;4.00;;;;;22.84;34.46;98976.63;4820481;29;102167;-71
2023/05/31 10:49:36;;;;;;;;;4.00;4.00;;;;;22.76;34.39;98968.91;4815912;28;102800;-70
2023/05/31 10:52:05;;;;;;;;;4.67;4.67;;;;;22.63;35.54;98969.38;4820699;28;101975;-70
2023/05/31 10:54:33;;;;;;;;;9.00;7.00;;;;;22.12;34.72;98973.81;4822133;29;104002;-70
2023/05/31 10:57:03;;;;;;;;;2.33;2.33;;;;;22.46;35.38;98963.25;4824565;29;102457;-70
2023/05/31 10:59:41;;;;;;;;;7.00;5.00;;;;;22.38;35.45;98956.31;4819480;29;102516;-70
2023/05/31 11:02:09;;;;;;;;;6.33;4.67;;;;;22.51;35.52;98960.53;4820264;28;102238;-70
2023/05/31 11:04:37;;;;;;;;;6.00;5.00;;;;;22.29;35.38;98957.13;4820335;29;104171;-70
2023/05/31 11:07:17;;;;;;;;;5.67;5.67;;;;;22.54;35.16;98955.28;4818691;28;102489;-71
2023/05/31 11:09:56;;;;;;;;;4.00;4.00;;;;;22.81;35.87;98948.78;4817611;28;102420;-70
2023/05/31 11:12:37;;;;;;;;;6.33;5.67;;;;;22.90;36.87;98939.72;4818253;29;102219;-70
2023/05/31 11:15:05;;;;;;;;;7.00;4.00;;;;;22.56;33.88;98942.06;4819458;29;104054;-70
2023/05/31 11:18:01;;;;;;;;;5.67;5.33;;;;;22.54;35.60;98932.41;4818757;28;102079;-70
2023/05/31 11:20:28;;;;;;;;;5.00;4.33;;;;;22.41;34.93;98927.41;4805412;29;102369;-71
2023/05/31 11:23:20;;;;;;;;;3.00;2.00;;;;;22.99;33.88;98928.97;4822469;29;102558;-71
2023/05/31 11:26:10;;;;;;;;;3.00;3.00;;;;;23.22;34.82;98922.09;4818261;29;109451;-72
2023/05/31 11:28:57;;;;;;;;;2.33;2.33;;;;;23.33;35.77;98926.50;4820717;28;103769;-70
2023/05/31 11:31:54;;;;;;;;;4.33;4.00;;;;;23.08;33.20;98919.88;4821660;28;102498;-71
2023/05/31 11:34:29;;;;;;;;;5.00;5.00;;;;;22.52;34.83;98918.06;4818377;29;102392;-70
2023/05/31 11:36:58;;;;;;;;;6.67;5.33;;;;;22.82;36.44;98914.59;4817257;28;104032;-70
2023/05/31 11:39:26;;;;;;;;;4.00;3.33;;;;;23.00;34.29;98908.56;4822518;29;101933;-71